• Join FlightAware (Why Join?)
  • Login
  • US Flag 
11:59AM EDT


 

Airport Tracker/Info


-or-


 

Live Flight TrackerFlight Track Log ✈ SWA3206 ✈ 13-May-2013 ✈ KPHX - KBWI

Flight Track Log - Related Links

Times and Time Zones

All times are in EDT time to prevent confusion due to time zone crossing. See the SWA3206 flight status page for this flight to view local times or setup timezone preferences in your user account.

Time Position Orientation Groundspeed Altitude Reporting Facility
EDT Latitude Longitude Course Direction KTS MPH feet Rate Location/Type
08:40PM 33.4167 -112.0833 248° West 189 217 2,900  Level Phoenix TRACON
08:41PM 33.4000 -112.1500 253° West 250 288 5,100 2,280 Climbing Phoenix TRACON
08:42PM 33.3931 -112.1700 247° West 244 281 6,000 2,220 Climbing Albuquerque Center
08:43PM 33.3219 -112.1736 182° South 280 322 8,100 1,020 Climbing Albuquerque Center
08:44PM 33.2522 -112.1283 151° Southeast 285 328 8,200 1,440 Climbing Albuquerque Center
08:45PM 33.2528 -112.0397 90° East 294 338 11,100 3,240 Climbing Albuquerque Center
08:46PM 33.2917 -111.9164 69° East 328 377 14,900 3,420 Climbing Albuquerque Center
08:47PM 33.3272 -111.8078 69° East 346 398 18,200 2,880 Climbing Albuquerque Center
08:48PM 33.3631 -111.6933 69° East 362 417 20,900 2,460 Climbing Albuquerque Center
08:49PM 33.4042 -111.5767 67° East 377 434 23,300 2,400 Climbing Albuquerque Center
08:50PM 33.4492 -111.4561 66° East 393 452 25,900 2,340 Climbing Albuquerque Center
08:51PM 33.4947 -111.3331 66° East 403 464 28,100 1,920 Climbing Albuquerque Center
08:52PM 33.5408 -111.2078 66° East 411 473 29,900 2,220 Climbing Albuquerque Center
08:53PM 33.5956 -111.0556 67° East 416 479 32,700 2,280 Climbing Albuquerque Center
08:54PM 33.6422 -110.9314 66° East 412 474 34,600 1,680 Climbing Albuquerque Center
08:55PM 33.6942 -110.8142 62° Northeast 402 463 36,200 1,620 Climbing Albuquerque Center
08:56PM 33.7497 -110.6997 60° Northeast 400 460 38,000 1,320 Climbing Albuquerque Center
08:57PM 33.8039 -110.5861 60° Northeast 395 455 39,000 480 Climbing Albuquerque Center
08:58PM 33.8589 -110.4719 60° Northeast 396 456 39,000  Level Albuquerque Center
08:59PM 33.9158 -110.3531 60° Northeast 398 458 39,000  Level Albuquerque Center
09:00PM 33.9697 -110.2375 61° Northeast 399 459 39,000 300 Level Albuquerque Center
09:01PM 34.0369 -110.0964 60° Northeast 404 465 39,700 840 Climbing Albuquerque Center
09:02PM 34.0917 -109.9819 60° Northeast 406 467 40,800 600 Climbing Albuquerque Center
09:03PM 34.1531 -109.8519 60° Northeast 402 463 41,000 60 Climbing Albuquerque Center
09:04PM 34.2056 -109.7425 60° Northeast 397 457 41,000  Level Albuquerque Center
09:05PM 34.2572 -109.6322 60° Northeast 394 453 41,000  Level Albuquerque Center
09:06PM 34.3172 -109.5039 60° Northeast 394 453 41,000  Level Albuquerque Center
09:07PM 34.3681 -109.3939 61° Northeast 392 451 41,000  Level Albuquerque Center
09:08PM 34.4272 -109.2653 61° Northeast 391 450 41,000  Level Albuquerque Center
09:09PM 34.4775 -109.1597 60° Northeast 386 444 41,000  Level Albuquerque Center
09:10PM 34.5264 -109.0528 61° Northeast 382 440 41,000  Level Albuquerque Center
09:11PM 34.5847 -108.9261 61° Northeast 383 441 41,000  Level Albuquerque Center
09:12PM 34.6342 -108.8181 61° Northeast 384 442 41,000  Level Albuquerque Center
09:13PM 34.6925 -108.6911 61° Northeast 385 443 41,000  Level Albuquerque Center
09:14PM 34.7403 -108.5794 62° Northeast 389 448 41,000  Level Albuquerque Center
09:15PM 34.7767 -108.4622 69° East 392 451 41,000  Level Albuquerque Center
09:16PM 34.8167 -108.3392 68° East 392 451 41,000  Level Albuquerque Center
09:17PM 34.8600 -108.2067 68° East 390 449 41,000  Level Albuquerque Center
09:18PM 34.9047 -108.0706 68° East 389 448 41,000  Level Albuquerque Center
09:20PM 34.9414 -107.9553 69° East 385 443 41,000  Level Albuquerque Center
09:21PM 34.9806 -107.8292 69° East 382 440 41,000  Level Albuquerque Center
09:22PM 35.0200 -107.7089 68° East 381 438 41,000  Level Albuquerque Center
09:23PM 35.0575 -107.5900 69° East 379 436 41,000  Level Albuquerque Center
09:24PM 35.0950 -107.4700 69° East 377 434 41,000  Level Albuquerque Center
09:25PM 35.1336 -107.3483 69° East 381 438 41,000  Level Albuquerque Center
09:26PM 35.1719 -107.2253 69° East 385 443 41,000  Level Albuquerque Center
09:27PM 35.2150 -107.0889 69° East 388 447 41,000  Level Albuquerque Center
09:28PM 35.2506 -106.9731 69° East 382 440 41,000  Level Albuquerque Center
09:29PM 35.2928 -106.8381 69° East 381 438 41,000  Level Albuquerque Center
09:30PM 35.3311 -106.7217 68° East 385 443 41,000  Level Albuquerque Center
09:31PM 35.3703 -106.5853 71° East 381 438 41,000  Level Albuquerque Center
09:32PM 35.4094 -106.4614 69° East 386 444 41,000  Level Albuquerque Center
09:33PM 35.4475 -106.3394 69° East 383 441 41,000  Level Albuquerque Center
09:34PM 35.4844 -106.2164 70° East 384 442 41,000  Level Albuquerque Center
09:35PM 35.5200 -106.0922 71° East 385 443 41,000  Level Albuquerque Center
09:36PM 35.5586 -105.9689 69° East 386 444 41,000  Level Albuquerque Center
09:37PM 35.5956 -105.8447 70° East 385 443 41,000  Level Albuquerque Center
09:38PM 35.6311 -105.7194 71° East 385 443 41,000  Level Albuquerque Center
09:39PM 35.6686 -105.5992 69° East 383 441 41,000  Level Albuquerque Center
09:40PM 35.7106 -105.4497 71° East 384 442 41,000  Level Albuquerque Center
09:41PM 35.7475 -105.3242 70° East 385 443 41,000  Level Albuquerque Center
09:42PM 35.7850 -105.1994 70° East 384 442 41,000  Level Albuquerque Center
09:43PM 35.8194 -105.0750 71° East 381 438 41,000  Level Albuquerque Center
09:44PM 35.8569 -104.9483 70° East 386 444 41,000  Level Albuquerque Center
09:45PM 35.8947 -104.8219 70° East 387 445 41,000  Level Albuquerque Center
09:46PM 35.9306 -104.6950 71° East 388 447 41,000  Level Albuquerque Center
09:47PM 35.9658 -104.5694 71° East 384 442 41,000  Level Albuquerque Center
09:48PM 36.0008 -104.4450 71° East 381 438 41,000  Level Albuquerque Center
09:49PM 36.0367 -104.3186 71° East 384 442 41,000  Level Albuquerque Center
09:50PM 36.0733 -104.1922 70° East 385 443 41,000  Level Albuquerque Center
09:51PM 36.1081 -104.0642 71° East 387 445 41,000  Level Albuquerque Center
09:52PM 36.1450 -103.9367 70° East 388 447 41,000  Level Albuquerque Center
09:53PM 36.1817 -103.8111 70° East 385 443 41,000  Level Albuquerque Center
09:54PM 36.2167 -103.6808 72° East 390 449 41,000  Level Albuquerque Center
09:55PM 36.2522 -103.5522 71° East 392 451 41,000  Level Albuquerque Center
09:56PM 36.2881 -103.4244 71° East 391 450 41,000  Level Albuquerque Center
09:57PM 36.3231 -103.2922 72° East 396 456 41,000  Level Albuquerque Center
09:58PM 36.3633 -103.1397 72° East 396 456 41,000  Level Albuquerque Center
09:59PM 36.4000 -103.0106 71° East 394 453 41,000  Level Albuquerque Center
10:00PM 36.4347 -102.8789 72° East 397 457 41,000  Level Albuquerque Center
10:01PM 36.4664 -102.7536 73° East 398 458 41,000  Level Albuquerque Center
10:02PM 36.5014 -102.6228 72° East 398 458 41,000  Level Albuquerque Center
10:03PM 36.5367 -102.4900 72° East 402 463 41,000  Level Albuquerque Center
10:05PM 36.5717 -102.3578 72° East 403 464 41,000  Level Albuquerque Center
10:06PM 36.6100 -102.2111 72° East 398 458 41,000  Level Albuquerque Center
10:07PM 36.6425 -102.0847 72° East 400 460 41,000  Level Albuquerque Center
10:08PM 36.6808 -101.9383 72° East 399 459 41,000  Level Albuquerque Center
10:09PM 36.7122 -101.8144 72° East 395 455 41,000  Level Albuquerque Center
10:10PM 36.7444 -101.6897 72° East 396 456 41,000  Level Albuquerque Center
10:11PM 36.7814 -101.5456 72° East 393 452 41,000  Level Albuquerque Center
10:12PM 36.8133 -101.4203 72° East 394 453 41,000  Level Albuquerque Center
10:13PM 36.8503 -101.2739 72° East 397 457 41,000  Level Kansas City Center
10:14PM 36.8869 -101.1269 73° East 398 458 41,000  Level Kansas City Center
10:15PM 36.9194 -100.9989 72° East 402 463 41,000  Level Kansas City Center
10:16PM 36.9503 -100.8725 73° East 400 460 41,000  Level Kansas City Center
10:17PM 36.9869 -100.7236 73° East 403 464 41,000  Level Kansas City Center
10:18PM 37.0189 -100.5972 72° East 401 461 41,000  Level Kansas City Center
10:19PM 37.0542 -100.4500 73° East 399 459 41,000  Level Kansas City Center
10:20PM 37.0850 -100.3244 73° East 397 457 41,000  Level Kansas City Center
10:21PM 37.1197 -100.1786 73° East 394 453 41,000  Level Kansas City Center
10:22PM 37.1500 -100.0539 73° East 393 452 41,000  Level Kansas City Center
10:23PM 37.1794 -99.9269 74° East 396 456 41,000  Level Kansas City Center
10:24PM 37.2153 -99.7792 73° East 398 458 41,000  Level Kansas City Center
10:25PM 37.2456 -99.6508 73° East 400 460 41,000  Level Kansas City Center
10:26PM 37.2797 -99.5042 74° East 396 456 41,000  Level Kansas City Center
10:27PM 37.3111 -99.3733 73° East 402 463 41,000  Level Kansas City Center
10:28PM 37.3436 -99.2406 73° East 401 461 41,000  Level Kansas City Center
10:29PM 37.3747 -99.1072 74° East 399 459 41,000  Level Kansas City Center
10:30PM 37.4022 -98.9711 76° East 402 463 41,000  Level Kansas City Center
10:31PM 37.4333 -98.8369 74° East 402 463 41,000  Level Kansas City Center
10:32PM 37.4647 -98.7014 74° East 403 464 41,000  Level Kansas City Center
10:33PM 37.4947 -98.5656 74° East 402 463 41,000  Level Kansas City Center
10:34PM 37.5256 -98.4294 74° East 405 466 41,000  Level Kansas City Center
10:35PM 37.5619 -98.2669 74° East 405 466 41,000  Level Kansas City Center
10:36PM 37.5919 -98.1317 74° East 403 464 41,000  Level Kansas City Center
10:37PM 37.6211 -97.9953 75° East 405 466 41,000  Level Kansas City Center
10:38PM 37.6486 -97.8661 75° East 407 468 41,000  Level Kansas City Center
10:39PM 37.6786 -97.7261 75° East 410 472 41,000  Level Kansas City Center
10:40PM 37.7150 -97.5597 74° East 409 471 41,000  Level Kansas City Center
10:41PM 37.7406 -97.4483 74° East 407 468 41,000  Level Kansas City Center
10:42PM 37.7764 -97.2800 75° East 413 475 41,000  Level Kansas City Center
10:43PM 37.8053 -97.1417 75° East 409 471 41,000  Level Kansas City Center
10:44PM 37.8347 -97.0025 75° East 411 473 41,000  Level Kansas City Center
10:45PM 37.8642 -96.8644 75° East 409 471 41,000  Level Kansas City Center
10:46PM 37.8931 -96.7258 75° East 407 468 41,000  Level Kansas City Center
10:48PM 37.9217 -96.5869 75° East 408 470 41,000  Level Kansas City Center
10:49PM 37.9497 -96.4483 76° East 408 470 41,000  Level Kansas City Center
10:50PM 37.9783 -96.3081 75° East 410 472 41,000  Level Kansas City Center
10:51PM 38.0069 -96.1689 75° East 409 471 41,000  Level Kansas City Center
10:52PM 38.0386 -96.0064 76° East 406 467 41,000  Level Kansas City Center
10:53PM 38.0661 -95.8722 75° East 411 473 41,000  Level Kansas City Center
10:54PM 38.0967 -95.7144 76° East 413 475 41,000  Level Kansas City Center
10:55PM 38.1228 -95.5800 76° East 412 474 41,000  Level Kansas City Center
10:56PM 38.1497 -95.4453 76° East 413 475 41,000  Level Kansas City Center
10:57PM 38.1803 -95.2886 76° East 411 473 41,000  Level Kansas City Center
10:58PM 38.2061 -95.1511 77° East 416 479 41,000  Level Kansas City Center
10:59PM 38.2358 -94.9931 76° East 416 479 41,000  Level Kansas City Center
11:00PM 38.2625 -94.8578 76° East 414 476 41,000  Level Kansas City Center
11:01PM 38.2872 -94.7233 77° East 412 474 41,000  Level Kansas City Center
11:02PM 38.3181 -94.5625 76° East 416 479 41,000  Level Kansas City Center
11:03PM 38.3431 -94.4275 77° East 413 475 41,000  Level Kansas City Center
11:04PM 38.3731 -94.2683 76° East 413 475 41,000  Level Kansas City Center
11:05PM 38.3978 -94.1328 77° East 413 475 41,000  Level Kansas City Center
11:06PM 38.4211 -93.9989 77° East 407 468 41,000  Level Kansas City Center
11:07PM 38.4469 -93.8542 77° East 412 474 41,000  Level Kansas City Center
11:08PM 38.4733 -93.7111 77° East 413 475 41,000  Level Kansas City Center
11:09PM 38.4989 -93.5672 77° East 414 476 41,000  Level Kansas City Center
11:10PM 38.5258 -93.4225 77° East 416 479 41,000  Level Kansas City Center
11:11PM 38.5553 -93.2486 78° East 416 479 41,000  Level Kansas City Center
11:12PM 38.5819 -93.1042 77° East 416 479 41,000  Level Kansas City Center
11:13PM 38.6061 -92.9569 78° East 418 481 41,000  Level Kansas City Center
11:14PM 38.6311 -92.8128 77° East 416 479 41,000  Level Kansas City Center
11:15PM 38.6553 -92.6667 78° East 416 479 41,000  Level Kansas City Center
11:16PM 38.6800 -92.5192 78° East 419 482 41,000  Level Kansas City Center
11:17PM 38.7039 -92.3736 78° East 418 481 41,000  Level Kansas City Center
11:18PM 38.7281 -92.2281 78° East 416 479 41,000  Level Kansas City Center
11:19PM 38.7522 -92.0822 78° East 416 479 41,000  Level Kansas City Center
11:20PM 38.7753 -91.9358 79° East 417 480 41,000  Level Kansas City Center
11:21PM 38.7972 -91.7892 79° East 417 480 41,000  Level Kansas City Center
11:22PM 38.8231 -91.6364 78° East 418 481 41,000  Level Kansas City Center
11:23PM 38.8458 -91.4903 79° East 418 481 41,000  Level Kansas City Center
11:24PM 38.8694 -91.3436 78° East 420 483 41,000  Level Kansas City Center
11:25PM 38.8922 -91.1961 79° East 421 484 41,000  Level Kansas City Center
11:26PM 38.9147 -91.0494 79° East 419 482 41,000  Level Kansas City Center
11:27PM 38.9381 -90.9017 78° East 420 483 41,000  Level Kansas City Center
11:28PM 38.9606 -90.7556 79° East 417 480 41,000  Level Kansas City Center
11:29PM 38.9836 -90.6067 79° East 420 483 41,000  Level Kansas City Center
11:30PM 39.0058 -90.4564 79° East 423 487 41,000  Level Kansas City Center
11:31PM 39.0275 -90.3058 79° East 424 488 41,000  Level Kansas City Center
11:32PM 39.0497 -90.1558 79° East 424 488 41,000  Level Kansas City Center
11:33PM 39.0706 -90.0053 80° East 425 489 41,000  Level Kansas City Center
11:34PM 39.0956 -89.8350 79° East 420 483 41,000  Level Kansas City Center
11:35PM 39.1167 -89.6853 80° East 422 486 41,000  Level Kansas City Center
11:36PM 39.1389 -89.5236 80° East 424 488 41,000  Level Kansas City Center
11:37PM 39.1597 -89.3750 80° East 422 486 41,000  Level Kansas City Center
11:38PM 39.1794 -89.2294 80° East 427 491 41,000  Level Kansas City Center
11:39PM 39.1994 -89.0803 80° East 424 488 41,000  Level Kansas City Center
11:40PM 39.2211 -88.9336 79° East 421 484 41,000  Level Kansas City Center
11:41PM 39.2425 -88.7839 80° East 424 488 41,000  Level Kansas City Center
11:42PM 39.2625 -88.6344 80° East 424 488 41,000  Level Kansas City Center
11:44PM 39.2794 -88.4911 81° East 423 487 41,000  Level Kansas City Center
11:45PM 39.2994 -88.3417 80° East 421 484 41,000  Level Kansas City Center
11:46PM 39.3233 -88.1581 80° East 426 490 41,000  Level Kansas City Center
11:47PM 39.3419 -88.0053 81° East 427 491 41,000  Level Kansas City Center
11:48PM 39.3608 -87.8511 81° East 430 495 41,000  Level Kansas City Center
11:49PM 39.3800 -87.6900 81° East 430 495 41,000  Level Indianapolis Center
11:50PM 39.3992 -87.5383 81° East 432 497 41,000  Level Indianapolis Center
11:51PM 39.4178 -87.3864 81° East 431 496 41,000  Level Indianapolis Center
11:52PM 39.4358 -87.2361 81° East 426 490 41,000  Level Indianapolis Center
11:53PM 39.4567 -87.0556 81° East 425 489 41,000  Level Indianapolis Center
11:54PM 39.4744 -86.9064 81° East 423 487 41,000  Level Indianapolis Center
11:55PM 39.4906 -86.7572 82° East 422 486 41,000  Level Indianapolis Center
11:56PM 39.5075 -86.6089 82° East 422 486 41,000  Level Indianapolis Center
11:57PM 39.5247 -86.4603 81° East 422 486 41,000  Level Indianapolis Center
11:58PM 39.5403 -86.3119 82° East 422 486 41,000  Level Indianapolis Center
11:59PM 39.5564 -86.1642 82° East 423 487 41,000  Level Indianapolis Center
12:00AM 39.5733 -86.0167 81° East 423 487 41,000  Level Indianapolis Center
12:01AM 39.5925 -85.8389 82° East 421 484 41,000  Level Indianapolis Center
12:02AM 39.6089 -85.6906 82° East 420 483 41,000  Level Indianapolis Center
12:03AM 39.6239 -85.5425 82° East 418 481 41,000  Level Indianapolis Center
12:04AM 39.6394 -85.3939 82° East 419 482 41,000  Level Indianapolis Center
12:05AM 39.6547 -85.2439 82° East 422 486 41,000  Level Indianapolis Center
12:06AM 39.6692 -85.0931 83° East 422 486 41,000  Level Indianapolis Center
12:07AM 39.6811 -84.9406 84° East 427 491 41,000  Level Indianapolis Center
12:08AM 39.6900 -84.7736 86° East 431 496 41,000  Level Indianapolis Center
12:09AM 39.6994 -84.6153 86° East 436 502 41,000  Level Indianapolis Center
12:10AM 39.7072 -84.4569 86° East 436 502 41,000 -600 Level Indianapolis Center
12:11AM 39.7150 -84.3017 86° East 430 495 39,900 -1,080 Descending Indianapolis Center
12:12AM 39.7236 -84.1469 86° East 426 490 38,900 -960 Descending Indianapolis Center
12:13AM 39.7314 -83.9886 86° East 436 502 38,000 -960 Descending Indianapolis Center
12:14AM 39.7389 -83.8306 86° East 435 501 37,000 -540 Descending Indianapolis Center
12:15AM 39.7461 -83.6772 86° East 427 491 37,000  Level Indianapolis Center
12:16AM 39.7528 -83.5194 87° East 420 483 37,000  Level Indianapolis Center
12:17AM 39.7600 -83.3792 86° East 419 482 37,000  Level Indianapolis Center
12:18AM 39.7669 -83.2297 86° East 418 481 37,000  Level Indianapolis Center
12:19AM 39.7731 -83.0792 87° East 416 479 37,000  Level Indianapolis Center
12:20AM 39.7789 -82.9281 87° East 417 480 37,000  Level Indianapolis Center
12:21AM 39.7844 -82.7792 87° East 412 474 37,000  Level Indianapolis Center
12:22AM 39.7914 -82.6267 87° East 418 481 37,000  Level Indianapolis Center
12:23AM 39.7964 -82.4758 87° East 417 480 37,000  Level Indianapolis Center
12:24AM 39.8017 -82.3253 87° East 415 478 37,000  Level Indianapolis Center
12:25AM 39.8075 -82.1733 87° East 416 479 37,000  Level Indianapolis Center
12:26AM 39.8075 -82.0194 90° East 422 486 37,000  Level Indianapolis Center
12:27AM 39.8011 -81.8622 93° East 430 495 37,000  Level Indianapolis Center
12:28AM 39.7942 -81.7067 93° East 430 495 37,000  Level Indianapolis Center
12:29AM 39.7881 -81.5497 93° East 431 496 37,000  Level Indianapolis Center
12:30AM 39.7864 -81.4881 92° East 433 498 37,000 -660 Level Cleveland Center
12:31AM 39.7811 -81.3339 93° East 428 493 36,100 -900 Descending Cleveland Center
12:32AM 39.7758 -81.1800 93° East 421 484 35,200 -600 Descending Cleveland Center
12:33AM 39.7683 -81.0261 94° East 426 490 35,000 -120 Descending Cleveland Center
12:34AM 39.7625 -80.8694 93° East 426 490 35,000  Level Cleveland Center
12:35AM 39.7544 -80.7128 94° East 426 490 35,000  Level Cleveland Center
12:36AM 39.7461 -80.5561 94° East 426 490 35,000  Level Cleveland Center
12:37AM 39.7292 -80.2769 94° East 442 509 35,000  Level Indianapolis Center
12:38AM 39.7206 -80.1189 94° East 441 507 35,000  Level Indianapolis Center
12:40AM 39.7125 -79.9344 93° East 425 489 35,000  Level Washington Center
12:41AM 39.7036 -79.7722 94° East 430 495 35,000  Level Washington Center
12:42AM 39.6883 -79.6150 97° East 435 501 35,000 -360 Level Washington Center
12:43AM 39.6622 -79.4569 102° East 440 506 34,300 -840 Descending Washington Center
12:44AM 39.6358 -79.2967 102° East 445 512 33,400 -960 Descending Washington Center
12:45AM 39.6094 -79.1364 102° East 450 518 32,400 -1,080 Descending Washington Center
12:46AM 39.5811 -78.9681 102° East 463 533 31,300 -1,560 Descending Washington Center
12:47AM 39.5542 -78.8081 102° East 463 533 29,300 -2,220 Descending Washington Center
12:48AM 39.5247 -78.6558 104° East 452 520 27,000 -2,040 Descending Washington Center
12:49AM 39.5050 -78.5261 101° East 434 499 25,300 -2,040 Descending Washington Center
12:50AM 39.4794 -78.3797 103° East 420 483 23,100 -2,100 Descending Washington Center
12:51AM 39.4533 -78.2389 103° East 408 470 21,100 -2,040 Descending Washington Center
12:52AM 39.4311 -78.1039 102° East 392 451 19,100 -1,980 Descending Washington Center
12:53AM 39.4089 -77.9767 103° East 378 435 17,200 -2,040 Descending Washington Center
12:54AM 39.3861 -77.8553 104° East 362 417 15,100 -1,140 Descending Washington Center
12:55AM 39.3633 -77.7364 104° East 344 396 15,000 -60 Descending Washington Center
12:56AM 39.3444 -77.6231 102° East 332 382 15,000 -600 Level Washington Center
12:56AM 39.3333 -77.5667 104° East 324 373 14,100 -1,620 Descending Potomac TRACON
12:57AM 39.3167 -77.4500 100° East 317 365 12,400 -1,740 Descending Potomac TRACON
12:58AM 39.3000 -77.3500 102° East 310 357 10,700 -1,740 Descending Potomac TRACON
12:59AM 39.2833 -77.2500 102° East 301 346 9,100 -1,260 Descending Potomac TRACON
01:02AM 39.2577 -77.1102 57° Northeast  Level Estimated
01:03AM 39.1500 -76.8833 57° Northeast 302 348 4,900  Level Potomac TRACON
01:04AM 39.1000 -76.8000 128° Southeast 287 330 3,800 -1,440 Descending Potomac TRACON
01:05AM 39.0667 -76.7333 123° Southeast 263 303 2,200 -1,080 Descending Potomac TRACON
01:06AM 39.0833 -76.6667 72° East 189 217 1,700 -360 Descending Potomac TRACON
01:07AM 39.1000 -76.6333 57° Northeast 146 168 1,500 -480 Descending Potomac TRACON
01:08AM 39.1333 -76.6333 360° North 154 177 800 -720 Descending Potomac TRACON
01:10AM 39.1667 -76.6667 North  Level FlightAware Approximate
01:17AM 39.1754 -76.6683 North  Level Estimated
01:18AM 39.1754 -76.6683 North  Level Estimated
01:19AM 39.1754 -76.6683 North  Level Estimated
01:20AM 39.1754 -76.6683 North  Level Estimated
01:21AM 39.1754 -76.6683 North  Level Estimated